Time;durP1;ratioP1;P1;durP2;ratioP2;P2;SDS_P1;SDS_P2;PMS_P1;PMS_P2;Temp;Humidity;BMP_temperature;BMP_pressure;BME280_temperature;BME280_humidity;BME280_pressure;Samples;Min_cycle;Max_cycle;Signal;HPM_P1;HPM_P2
2022/08/10 00:00:21;;;;;;;12.85;8.45;;;13.10;99.90;;;;;;5042069;28;20024;-78
2022/08/10 00:02:51;;;;;;;12.63;8.23;;;13.10;99.90;;;;;;5042131;28;20045;-78
2022/08/10 00:05:17;;;;;;;13.57;8.93;;;13.10;99.90;;;;;;5042067;28;20029;-79
2022/08/10 00:07:43;;;;;;;13.73;8.77;;;13.10;99.90;;;;;;5041997;28;20044;-78
2022/08/10 00:10:09;;;;;;;12.52;8.05;;;13.10;99.90;;;;;;5041894;28;20038;-79
2022/08/10 00:12:35;;;;;;;16.75;8.88;;;13.10;99.90;;;;;;5041966;28;20036;-79
2022/08/10 00:15:00;;;;;;;11.60;7.82;;;13.10;99.90;;;;;;5041826;28;20010;-79
2022/08/10 00:17:26;;;;;;;13.35;8.93;;;13.10;99.90;;;;;;5041546;28;20010;-79
2022/08/10 00:19:52;;;;;;;16.20;8.75;;;13.10;99.90;;;;;;5041733;28;20017;-78
2022/08/10 00:22:18;;;;;;;15.55;9.10;;;13.10;99.90;;;;;;5041657;28;20032;-78
2022/08/10 00:24:43;;;;;;;16.50;9.02;;;13.10;99.90;;;;;;5041650;28;20033;-78
2022/08/10 00:27:09;;;;;;;13.38;8.20;;;13.10;99.90;;;;;;5040545;28;20050;-78
2022/08/10 00:29:35;;;;;;;15.27;8.35;;;13.00;99.90;;;;;;5041412;28;20025;-79
2022/08/10 00:32:01;;;;;;;13.38;8.65;;;13.10;99.90;;;;;;5041367;28;20025;-79
2022/08/10 00:34:27;;;;;;;15.77;9.68;;;13.10;99.90;;;;;;5041210;28;20038;-78
2022/08/10 00:36:54;;;;;;;15.13;8.35;;;13.00;99.90;;;;;;5041311;28;20010;-79
2022/08/10 00:39:19;;;;;;;14.52;8.80;;;12.90;99.90;;;;;;5041415;28;20061;-78
2022/08/10 00:41:45;;;;;;;15.18;8.90;;;13.00;99.90;;;;;;5041328;28;20070;-79
2022/08/10 00:44:10;;;;;;;14.95;9.07;;;13.00;99.90;;;;;;5041271;28;20069;-78
2022/08/10 00:46:36;;;;;;;16.70;9.27;;;12.90;99.90;;;;;;5041134;28;20022;-78
2022/08/10 00:49:02;;;;;;;16.73;9.85;;;13.00;99.90;;;;;;5041166;28;20034;-78
2022/08/10 00:51:27;;;;;;;16.75;9.50;;;13.10;99.90;;;;;;5041119;28;20018;-79
2022/08/10 00:53:53;;;;;;;15.10;9.00;;;13.00;99.90;;;;;;5041034;28;20010;-78
2022/08/10 00:56:19;;;;;;;15.20;9.05;;;13.00;99.90;;;;;;5041037;28;20029;-78
2022/08/10 00:58:45;;;;;;;14.48;8.68;;;13.10;99.90;;;;;;5040945;28;20033;-78
2022/08/10 01:01:11;;;;;;;16.98;9.93;;;12.90;99.90;;;;;;5040985;28;20010;-79
2022/08/10 01:03:36;;;;;;;16.45;9.60;;;12.90;99.90;;;;;;5040889;28;20042;-79
2022/08/10 01:06:20;;;;;;;16.08;9.20;;;12.90;99.90;;;;;;5040905;28;20037;-78
2022/08/10 01:08:49;;;;;;;15.65;8.52;;;12.80;99.90;;;;;;5040733;28;20010;-77
2022/08/10 01:11:26;;;;;;;18.83;9.07;;;12.90;99.90;;;;;;5040808;28;20006;-78
2022/08/10 01:14:11;;;;;;;14.00;8.30;;;13.00;99.90;;;;;;5040677;28;20077;-78
2022/08/10 01:16:51;;;;;;;14.55;8.65;;;13.10;99.90;;;;;;5040644;28;20018;-78
2022/08/10 01:19:45;;;;;;;16.30;8.75;;;13.10;99.90;;;;;;5040761;28;20010;-79
2022/08/10 01:22:29;;;;;;;15.50;8.63;;;13.10;99.90;;;;;;5040573;28;20018;-78
2022/08/10 01:25:06;;;;;;;16.90;7.60;;;13.10;99.90;;;;;;5040495;28;20023;-78
2022/08/10 01:27:53;;;;;;;13.35;8.32;;;13.00;99.90;;;;;;5040452;28;20081;-78
2022/08/10 01:30:20;;;;;;;12.95;8.23;;;12.90;99.90;;;;;;5040353;28;20033;-78
2022/08/10 01:33:08;;;;;;;12.88;8.15;;;13.00;99.90;;;;;;5040199;28;20025;-79
2022/08/10 01:35:40;;;;;;;12.35;7.72;;;12.90;99.90;;;;;;5040175;28;20030;-79
2022/08/10 01:38:40;;;;;;;13.75;7.85;;;12.90;99.90;;;;;;5040175;28;20073;-78
2022/08/10 01:41:12;;;;;;;14.60;8.10;;;13.00;99.90;;;;;;5008787;28;20032;-78
2022/08/10 01:43:48;;;;;;;16.75;8.15;;;13.00;99.90;;;;;;5040179;28;20038;-78
2022/08/10 01:46:16;;;;;;;11.30;7.53;;;12.90;99.90;;;;;;5040165;28;20010;-78
2022/08/10 01:48:49;;;;;;;10.95;6.70;;;13.00;99.90;;;;;;5040097;28;20105;-78
2022/08/10 01:51:18;;;;;;;11.07;6.90;;;12.80;99.90;;;;;;5040029;28;20014;-79
2022/08/10 01:53:50;;;;;;;10.32;6.95;;;12.90;99.90;;;;;;5039866;28;20015;-79
2022/08/10 01:56:18;;;;;;;11.15;6.97;;;12.80;99.90;;;;;;5040020;28;20060;-78
2022/08/10 01:58:49;;;;;;;10.88;6.88;;;12.80;99.90;;;;;;5039733;28;20018;-78
2022/08/10 02:01:18;;;;;;;9.25;6.03;;;12.90;99.90;;;;;;5039992;28;20018;-78
2022/08/10 02:03:48;;;;;;;9.95;6.35;;;13.00;1.00;;;;;;5039799;28;20078;-78
2022/08/10 02:06:15;;;;;;;11.32;6.72;;;12.90;99.90;;;;;;5039939;28;20010;-79
2022/08/10 02:08:42;;;;;;;10.20;6.45;;;13.00;1.00;;;;;;5039651;28;20010;-78
2022/08/10 02:11:09;;;;;;;10.93;6.43;;;12.90;1.00;;;;;;5039732;28;20069;-78
2022/08/10 02:13:37;;;;;;;10.27;6.65;;;12.80;1.00;;;;;;5039780;28;20024;-78
2022/08/10 02:16:04;;;;;;;11.20;6.43;;;12.90;1.00;;;;;;5039535;28;20090;-78
2022/08/10 02:18:32;;;;;;;9.85;6.07;;;12.90;1.00;;;;;;5039500;28;20025;-79
2022/08/10 02:21:03;;;;;;;9.43;5.68;;;12.80;1.00;;;;;;5039571;28;20018;-78
2022/08/10 02:23:31;;;;;;;6.78;5.25;;;12.80;1.00;;;;;;5039449;28;20006;-78
2022/08/10 02:25:59;;;;;;;8.63;5.47;;;12.70;1.00;;;;;;5039446;28;20014;-78
2022/08/10 02:28:28;;;;;;;8.27;5.53;;;12.80;1.00;;;;;;5039393;28;20025;-78
2022/08/10 02:30:55;;;;;;;9.02;6.20;;;12.80;1.00;;;;;;5039160;28;20029;-79
2022/08/10 02:33:24;;;;;;;9.18;6.07;;;12.80;1.00;;;;;;5039045;28;20010;-79
2022/08/10 02:35:52;;;;;;;11.35;6.20;;;12.70;1.00;;;;;;5039303;28;20052;-78
2022/08/10 02:38:24;;;;;;;12.38;6.70;;;12.60;1.00;;;;;;5039397;28;20017;-79
2022/08/10 02:40:56;;;;;;;10.32;6.57;;;12.70;1.00;;;;;;5039247;28;20029;-77
2022/08/10 02:43:34;;;;;;;9.90;6.32;;;12.60;1.00;;;;;;5039319;28;20049;-78
2022/08/10 02:46:07;;;;;;;10.13;6.25;;;12.50;1.00;;;;;;5039158;28;20090;-78
2022/08/10 02:48:43;;;;;;;9.65;6.13;;;12.60;1.00;;;;;;5039041;28;20021;-78
2022/08/10 02:51:18;;;;;;;10.80;6.03;;;12.60;1.00;;;;;;5038691;28;20060;-78
2022/08/10 02:53:51;;;;;;;10.73;6.05;;;12.60;1.00;;;;;;5039145;28;20033;-78
2022/08/10 02:56:55;;;;;;;9.98;5.65;;;12.70;1.00;;;;;;5039093;28;20110;-78
2022/08/10 02:59:30;;;;;;;7.90;5.35;;;12.50;1.00;;;;;;4979604;28;20039;-78
2022/08/10 03:02:01;;;;;;;12.35;5.47;;;12.50;1.00;;;;;;5032030;28;20089;-79
2022/08/10 03:04:36;;;;;;;11.15;6.00;;;12.60;1.00;;;;;;5038927;28;20066;-78
2022/08/10 03:07:07;;;;;;;9.18;6.13;;;12.60;1.00;;;;;;5039015;28;20034;-77
2022/08/10 03:09:35;;;;;;;9.55;5.85;;;12.70;1.00;;;;;;5038909;28;20026;-78
2022/08/10 03:12:04;;;;;;;10.80;6.22;;;12.60;1.00;;;;;;5038881;28;20010;-78
2022/08/10 03:14:30;;;;;;;10.68;6.57;;;12.80;11.40;;;;;;5038814;28;20022;-79
2022/08/10 03:16:57;;;;;;;14.45;7.03;;;12.90;39.30;;;;;;5038936;28;20038;-78
2022/08/10 03:19:24;;;;;;;13.57;7.18;;;12.90;56.70;;;;;;5038887;28;20014;-78
2022/08/10 03:21:51;;;;;;;10.95;6.93;;;12.90;86.10;;;;;;5038756;28;20032;-78
2022/08/10 03:24:21;;;;;;;13.50;7.32;;;12.90;99.90;;;;;;5038840;28;20025;-78
2022/08/10 03:26:49;;;;;;;11.23;6.97;;;12.80;99.90;;;;;;5038856;28;20037;-78
2022/08/10 03:29:17;;;;;;;9.85;6.63;;;12.90;99.90;;;;;;5038590;28;20034;-78
2022/08/10 03:31:44;;;;;;;10.68;5.88;;;12.90;99.90;;;;;;5038706;28;20014;-77
2022/08/10 03:34:11;;;;;;;10.80;6.80;;;12.90;99.90;;;;;;5038354;28;20046;-79
2022/08/10 03:36:36;;;;;;;12.43;6.78;;;13.00;99.90;;;;;;5038736;28;20016;-79
2022/08/10 03:39:02;;;;;;;13.20;7.25;;;12.90;99.90;;;;;;5038672;28;20026;-78
2022/08/10 03:41:40;;;;;;;13.88;7.05;;;12.90;99.90;;;;;;5038602;28;20014;-78
2022/08/10 03:44:07;;;;;;;10.27;7.40;;;12.80;99.90;;;;;;5038392;28;20014;-78
2022/08/10 03:46:36;;;;;;;16.88;7.35;;;12.90;99.90;;;;;;5038744;28;20014;-79
2022/08/10 03:49:04;;;;;;;14.65;7.22;;;12.80;99.90;;;;;;5038309;28;20010;-78
2022/08/10 03:51:31;;;;;;;10.95;7.05;;;12.90;99.90;;;;;;5038542;28;20030;-78
2022/08/10 03:53:57;;;;;;;11.88;7.60;;;13.00;99.90;;;;;;5038460;28;20021;-79
2022/08/10 03:56:23;;;;;;;13.75;7.50;;;13.00;99.90;;;;;;5038285;28;20017;-78
2022/08/10 03:58:49;;;;;;;12.90;7.28;;;12.90;99.90;;;;;;5038523;28;20014;-78
2022/08/10 04:01:15;;;;;;;11.80;7.25;;;12.90;99.90;;;;;;5039680;28;20045;-77
2022/08/10 04:03:41;;;;;;;11.52;6.72;;;13.00;99.90;;;;;;5041660;28;20025;-79
2022/08/10 04:06:08;;;;;;;9.93;6.68;;;13.00;99.90;;;;;;5041756;28;20018;-79
2022/08/10 04:08:33;;;;;;;12.30;6.95;;;12.80;99.90;;;;;;5041705;28;20006;-79
2022/08/10 04:10:59;;;;;;;15.50;7.05;;;12.80;99.90;;;;;;5041858;28;20044;-78
2022/08/10 04:13:24;;;;;;;13.68;7.00;;;12.90;99.90;;;;;;5041837;28;20014;-78
2022/08/10 04:15:50;;;;;;;14.77;7.22;;;13.00;99.90;;;;;;5041856;28;20026;-79
2022/08/10 04:18:15;;;;;;;13.77;7.45;;;12.90;99.90;;;;;;5041779;28;20025;-79
2022/08/10 04:20:48;;;;;;;12.18;7.45;;;13.00;99.90;;;;;;5041589;28;20010;-79
2022/08/10 04:23:28;;;;;;;12.88;6.30;;;13.00;99.90;;;;;;5041730;28;20025;-79
2022/08/10 04:25:54;;;;;;;12.67;7.30;;;13.10;99.90;;;;;;5041792;28;20022;-79
2022/08/10 04:28:20;;;;;;;14.07;8.32;;;13.10;99.90;;;;;;5041611;28;20026;-78
2022/08/10 04:30:48;;;;;;;14.70;6.65;;;13.20;99.90;;;;;;5041722;28;20034;-78
2022/08/10 04:33:17;;;;;;;15.85;7.70;;;13.20;99.90;;;;;;5041383;28;20010;-79
2022/08/10 04:35:45;;;;;;;9.82;6.63;;;13.30;99.90;;;;;;5041242;28;20049;-79
2022/08/10 04:38:12;;;;;;;13.15;7.07;;;13.40;99.90;;;;;;5041470;28;20010;-78
2022/08/10 04:40:38;;;;;;;12.02;7.10;;;13.50;99.90;;;;;;5041204;28;20021;-78
2022/08/10 04:43:05;;;;;;;13.50;7.18;;;13.50;99.90;;;;;;5041231;28;20026;-78
2022/08/10 04:45:31;;;;;;;10.48;6.72;;;13.60;99.90;;;;;;5041168;28;20058;-78
2022/08/10 04:47:57;;;;;;;11.05;6.65;;;13.70;99.90;;;;;;5040989;28;20018;-79
2022/08/10 04:50:22;;;;;;;15.80;7.25;;;13.70;99.90;;;;;;5041150;28;20041;-79
2022/08/10 04:52:48;;;;;;;11.32;6.90;;;13.80;99.90;;;;;;5041211;28;20022;-79
2022/08/10 04:55:14;;;;;;;13.57;8.27;;;13.90;99.90;;;;;;5041170;28;20052;-79
2022/08/10 04:57:39;;;;;;;11.82;6.63;;;14.00;99.90;;;;;;5041271;28;20025;-79
2022/08/10 05:00:06;;;;;;;11.20;7.47;;;14.00;99.90;;;;;;5040939;28;20032;-78
2022/08/10 05:02:31;;;;;;;13.38;7.68;;;14.10;99.90;;;;;;5040949;28;20037;-79
2022/08/10 05:04:57;;;;;;;11.73;6.68;;;14.20;99.90;;;;;;5040953;28;20014;-79
2022/08/10 05:07:22;;;;;;;12.35;7.65;;;14.20;99.90;;;;;;5040880;28;20020;-79
2022/08/10 05:09:49;;;;;;;14.05;7.93;;;14.30;99.90;;;;;;5040735;28;20026;-79
2022/08/10 05:12:14;;;;;;;14.07;7.97;;;14.30;97.90;;;;;;5040478;28;20033;-79
2022/08/10 05:14:40;;;;;;;14.23;7.80;;;14.30;80.20;;;;;;5040477;28;20032;-79
2022/08/10 05:17:06;;;;;;;12.93;7.30;;;14.40;41.60;;;;;;5040777;28;20066;-79
2022/08/10 05:19:31;;;;;;;13.80;8.50;;;14.50;24.50;;;;;;5040604;28;20010;-79
2022/08/10 05:21:57;;;;;;;16.30;8.23;;;14.70;1.00;;;;;;5040715;28;20021;-78
2022/08/10 05:24:22;;;;;;;14.50;8.48;;;14.90;1.00;;;;;;5040564;28;20006;-79
2022/08/10 05:26:48;;;;;;;11.60;7.68;;;15.90;1.00;;;;;;5040599;28;20014;-79
2022/08/10 05:29:13;;;;;;;16.10;8.90;;;16.30;99.90;;;;;;5040424;28;20028;-79
2022/08/10 05:31:39;;;;;;;14.15;8.48;;;16.80;99.90;;;;;;5040164;28;20061;-79
2022/08/10 05:34:05;;;;;;;11.45;8.02;;;18.50;99.90;;;;;;5040037;28;20030;-79
2022/08/10 05:36:32;;;;;;;13.43;7.43;;;20.00;1.00;;;;;;5040337;28;20041;-79
2022/08/10 05:39:00;;;;;;;11.15;7.20;;;20.80;99.90;;;;;;5040276;28;20010;-79
2022/08/10 05:41:27;;;;;;;10.77;6.35;;;20.70;99.90;;;;;;5040358;28;20025;-79
2022/08/10 05:43:54;;;;;;;11.70;7.35;;;20.40;99.90;;;;;;5040253;28;20014;-79
2022/08/10 05:46:19;;;;;;;11.52;7.20;;;20.20;99.90;;;;;;5040078;28;20025;-79
2022/08/10 05:48:45;;;;;;;8.80;6.68;;;21.40;99.90;;;;;;5040000;28;20038;-80
2022/08/10 05:51:10;;;;;;;10.75;7.60;;;22.30;99.90;;;;;;5040081;28;20033;-79
2022/08/10 05:53:37;;;;;;;9.75;6.93;;;23.80;99.90;;;;;;5040173;28;20060;-80
2022/08/10 05:56:05;;;;;;;9.60;6.30;;;26.00;99.90;;;;;;5040002;28;20033;-79
2022/08/10 05:58:31;;;;;;;8.25;6.50;;;27.00;99.90;;;;;;5039939;28;20029;-79
2022/08/10 06:01:01;;;;;;;8.30;6.38;;;27.40;99.90;;;;;;5039900;28;20014;-80
2022/08/10 06:03:34;;;;;;;7.57;6.40;;;27.90;99.90;;;;;;5039853;28;20082;-79
2022/08/10 06:06:02;;;;;;;12.10;6.57;;;27.30;99.90;;;;;;5039756;28;20048;-80
2022/08/10 06:08:31;;;;;;;8.68;5.63;;;28.10;99.90;;;;;;5039752;28;20014;-79
2022/08/10 06:11:00;;;;;;;7.00;5.35;;;29.30;99.90;;;;;;5039715;28;20048;-80
2022/08/10 06:16:14;;;;;;;7.13;6.43;;;29.70;99.90;;;;;;5039685;28;20025;-80
2022/08/10 06:18:42;;;;;;;8.60;6.07;;;29.60;99.90;;;;;;5039665;28;20017;-80
2022/08/10 06:21:10;;;;;;;7.15;5.90;;;29.50;99.90;;;;;;5039419;28;20069;-78
2022/08/10 06:23:37;;;;;;;7.97;5.78;;;29.50;99.90;;;;;;5039605;28;20006;-80
2022/08/10 06:26:05;;;;;;;8.50;5.72;;;29.60;99.90;;;;;;5038728;28;20070;-79
2022/08/10 06:28:36;;;;;;;8.55;6.22;;;28.70;99.90;;;;;;5039253;28;20006;-80
2022/08/10 06:31:04;;;;;;;7.00;5.80;;;25.80;99.90;;;;;;5039204;28;20030;-80
2022/08/10 06:33:32;;;;;;;7.97;6.13;;;29.00;99.90;;;;;;5038916;28;20041;-80
2022/08/10 06:35:59;;;;;;;8.52;6.38;;;30.90;99.90;;;;;;5039410;28;20010;-80
2022/08/10 06:38:29;;;;;;;7.38;5.70;;;31.50;99.90;;;;;;5039250;28;20037;-80
2022/08/10 06:40:57;;;;;;;;;;;33.50;99.90;;;;;;5039292;28;20077;-80
2022/08/10 06:43:25;;;;;;;8.10;5.80;;;33.20;99.90;;;;;;5039171;28;19917;-79
2022/08/10 06:45:54;;;;;;;6.60;5.30;;;34.10;99.90;;;;;;5039188;28;20006;-80
2022/08/10 06:48:31;;;;;;;8.05;5.07;;;35.00;99.90;;;;;;5039091;28;20018;-80
2022/08/10 06:51:00;;;;;;;5.38;4.88;;;33.80;99.90;;;;;;5039177;28;20089;-79
2022/08/10 06:53:38;;;;;;;5.97;4.63;;;33.40;99.90;;;;;;5039096;28;20002;-80
2022/08/10 06:56:10;;;;;;;7.55;4.90;;;33.40;99.90;;;;;;5039053;28;20038;-81
2022/08/10 06:58:51;;;;;;;5.05;4.10;;;34.40;99.90;;;;;;5039066;28;20013;-80
2022/08/10 07:01:22;;;;;;;5.28;3.95;;;33.40;99.90;;;;;;5038962;28;20032;-80
2022/08/10 07:03:56;;;;;;;3.60;3.30;;;34.90;99.90;;;;;;5038870;28;20041;-80
2022/08/10 07:06:23;;;;;;;4.15;2.80;;;34.60;99.90;;;;;;5038940;28;20053;-80
2022/08/10 07:08:51;;;;;;;4.72;3.78;;;33.20;99.90;;;;;;5038846;28;20022;-80
2022/08/10 07:11:19;;;;;;;4.40;2.63;;;34.40;99.90;;;;;;5038959;28;20010;-80
2022/08/10 07:13:46;;;;;;;7.88;3.45;;;34.10;99.90;;;;;;5038937;28;20028;-80
2022/08/10 07:16:13;;;;;;;5.55;3.13;;;33.90;99.90;;;;;;5038819;28;20006;-80
2022/08/10 07:18:41;;;;;;;3.83;3.00;;;35.50;99.90;;;;;;5038901;28;20014;-80
2022/08/10 07:21:09;;;;;;;4.75;3.42;;;36.00;99.90;;;;;;5038866;28;20014;-80
2022/08/10 07:23:37;;;;;;;3.42;2.92;;;37.80;99.90;;;;;;5038853;28;20017;-80
2022/08/10 07:26:05;;;;;;;3.95;2.53;;;38.40;99.90;;;;;;5038832;28;20021;-80
2022/08/10 07:28:32;;;;;;;5.25;2.83;;;37.60;99.90;;;;;;5038863;28;20026;-81
2022/08/10 07:30:59;;;;;;;5.00;2.90;;;37.90;99.90;;;;;;5038730;28;20052;-81
2022/08/10 07:33:26;;;;;;;4.90;2.67;;;35.50;99.90;;;;;;5038384;28;20021;-81
2022/08/10 07:35:54;;;;;;;5.10;2.70;;;37.50;99.90;;;;;;5039361;28;20033;-81
2022/08/10 07:38:24;;;;;;;6.43;2.78;;;37.30;99.90;;;;;;5042585;28;20010;-81
2022/08/10 07:40:51;;;;;;;3.17;2.90;;;37.70;99.90;;;;;;5042540;28;20006;-80
2022/08/10 07:43:22;;;;;;;6.15;3.33;;;36.50;99.90;;;;;;5042312;28;20010;-80
2022/08/10 07:45:48;;;;;;;7.22;3.13;;;36.30;99.90;;;;;;5042395;28;20014;-80
2022/08/10 07:48:26;;;;;;;6.18;3.00;;;36.10;99.90;;;;;;5042281;28;20014;-80
2022/08/10 07:50:58;;;;;;;4.25;2.70;;;37.50;99.90;;;;;;5042189;28;20041;-81
2022/08/10 07:53:26;;;;;;;3.30;2.20;;;38.90;99.90;;;;;;5042317;28;20029;-81
2022/08/10 07:55:54;;;;;;;5.55;3.00;;;38.40;99.90;;;;;;5042132;28;20017;-81
2022/08/10 07:58:23;;;;;;;3.47;2.90;;;38.60;99.90;;;;;;5042228;28;20014;-80
2022/08/10 08:00:51;;;;;;;5.70;3.10;;;36.80;99.90;;;;;;5042185;28;20077;-81
2022/08/10 08:03:23;;;;;;;4.65;3.00;;;37.00;99.90;;;;;;5042191;28;20016;-81
2022/08/10 08:05:50;;;;;;;5.45;3.10;;;38.30;99.90;;;;;;5042176;28;20010;-81
2022/08/10 08:08:18;;;;;;;6.22;2.90;;;37.10;99.90;;;;;;5041992;28;20595;-81
2022/08/10 08:10:45;;;;;;;5.25;2.83;;;37.40;99.90;;;;;;5041957;28;20030;-81
2022/08/10 08:13:12;;;;;;;3.67;2.92;;;39.20;99.90;;;;;;5041970;28;20036;-81
2022/08/10 08:15:39;;;;;;;3.88;3.03;;;39.80;99.90;;;;;;5041852;28;20041;-81
2022/08/10 08:18:06;;;;;;;3.42;2.70;;;37.90;99.20;;;;;;5041777;28;20018;-81
2022/08/10 08:20:33;;;;;;;3.47;3.17;;;37.50;99.80;;;;;;5041801;28;20037;-80
2022/08/10 08:23:00;;;;;;;4.35;3.00;;;36.20;99.90;;;;;;5041693;28;20034;-82
2022/08/10 08:25:26;;;;;;;4.57;2.60;;;36.50;99.90;;;;;;5041707;28;20018;-80
2022/08/10 08:27:55;;;;;;;2.97;2.40;;;38.20;99.90;;;;;;5041692;28;20013;-80
2022/08/10 08:30:22;;;;;;;4.38;2.58;;;40.10;99.90;;;;;;5041670;28;20094;-80
2022/08/10 08:32:48;;;;;;;6.72;2.88;;;39.70;98.20;;;;;;5038854;28;20057;-80
2022/08/10 08:35:17;;;;;;;5.07;2.80;;;39.20;97.20;;;;;;5037868;28;20037;-81
2022/08/10 08:37:46;;;;;;;4.30;2.72;;;38.60;95.40;;;;;;5038720;28;20048;-81
2022/08/10 08:40:26;;;;;;;5.40;2.65;;;39.90;96.10;;;;;;5040867;28;20117;-81
2022/08/10 08:43:19;;;;;;;3.58;2.22;;;38.80;95.70;;;;;;5032590;28;20030;-82
2022/08/10 08:46:08;;;;;;;3.97;2.35;;;39.40;94.80;;;;;;5025205;28;20026;-82
2022/08/10 08:49:10;;;;;;;4.63;3.15;;;40.90;94.90;;;;;;5024038;28;20497;-81
2022/08/10 08:52:09;;;;;;;3.35;2.50;;;39.30;92.90;;;;;;5022552;28;20034;-81
2022/08/10 08:55:17;;;;;;;4.15;2.50;;;39.00;93.20;;;;;;5024348;28;20113;-82
2022/08/10 08:58:22;;;;;;;4.47;2.72;;;40.40;92.50;;;;;;5038050;28;20044;-81
2022/08/10 09:01:02;;;;;;;4.45;2.35;;;39.50;91.80;;;;;;5040948;28;20086;-82
2022/08/10 09:04:09;;;;;;;2.90;2.47;;;40.00;91.20;;;;;;5041053;28;20017;-82
2022/08/10 09:06:56;;;;;;;4.88;2.80;;;39.20;90.40;;;;;;4993414;28;20020;-82
2022/08/10 09:09:34;;;;;;;3.00;2.28;;;37.40;91.10;;;;;;5040986;28;20030;-82
2022/08/10 09:12:44;;;;;;;5.80;3.00;;;39.50;93.10;;;;;;5040669;28;20026;-82
2022/08/10 09:15:27;;;;;;;6.28;2.22;;;39.50;90.60;;;;;;4980748;28;20016;-82
2022/08/10 09:18:09;;;;;;;7.60;2.55;;;39.20;90.10;;;;;;4981253;28;20039;-81
2022/08/10 09:20:59;;;;;;;2.92;2.20;;;40.40;89.70;;;;;;5022877;28;20022;-82
2022/08/10 09:23:40;;;;;;;3.78;2.65;;;39.50;86.30;;;;;;5040536;28;20022;-81
2022/08/10 09:26:41;;;;;;;3.40;2.33;;;38.40;84.60;;;;;;5040631;28;20085;-82
2022/08/10 09:29:11;;;;;;;2.70;2.40;;;39.10;85.50;;;;;;5036642;28;20026;-82
2022/08/10 09:31:45;;;;;;;3.30;2.40;;;38.30;82.80;;;;;;5040426;28;20036;-82
2022/08/10 09:34:20;;;;;;;3.05;2.50;;;37.60;81.70;;;;;;5039664;28;20053;-81
2022/08/10 09:37:04;;;;;;;3.58;2.50;;;37.90;82.50;;;;;;5040424;28;20010;-82
2022/08/10 09:40:03;;;;;;;3.55;2.97;;;38.00;82.20;;;;;;5040275;28;20014;-82
2022/08/10 09:42:50;;;;;;;4.50;2.80;;;38.00;81.40;;;;;;5039813;28;20032;-81
2022/08/10 09:45:29;;;;;;;2.67;2.47;;;39.10;82.10;;;;;;5036793;28;20072;-81
2022/08/10 09:48:19;;;;;;;3.58;2.53;;;39.80;82.40;;;;;;5036099;28;20014;-82
2022/08/10 09:50:59;;;;;;;3.33;2.35;;;41.10;81.40;;;;;;5036916;28;20045;-82
2022/08/10 09:53:44;;;;;;;3.78;2.25;;;39.30;77.30;;;;;;5033658;28;20029;-81
2022/08/10 09:56:24;;;;;;;3.60;1.98;;;39.00;75.80;;;;;;5039199;28;20033;-82
2022/08/10 09:59:06;;;;;;;2.97;2.10;;;39.20;75.30;;;;;;5015726;28;20026;-82
2022/08/10 10:01:40;;;;;;;3.38;2.45;;;41.30;76.10;;;;;;5017650;28;20026;-81
2022/08/10 10:04:20;;;;;;;3.03;2.20;;;40.00;74.10;;;;;;5018878;28;20026;-81
2022/08/10 10:06:49;;;;;;;4.15;2.17;;;39.10;72.00;;;;;;5017809;28;20128;-81
2022/08/10 10:09:29;;;;;;;5.73;2.00;;;39.10;71.50;;;;;;5017398;28;20034;-82
2022/08/10 10:11:58;;;;;;;4.45;2.58;;;39.00;72.40;;;;;;5017925;28;20439;-82
2022/08/10 10:15:19;;;;;;;4.57;2.58;;;38.90;72.80;;;;;;5017780;28;20021;-81
2022/08/10 10:17:39;;;;;;;3.97;2.90;;;37.60;69.80;;;;;;5017542;28;20570;-81
2022/08/10 10:20:27;;;;;;;5.18;2.92;;;38.40;72.50;;;;;;5019409;28;20600;-81
2022/08/10 10:23:17;;;;;;;4.32;2.95;;;37.70;71.60;;;;;;5019826;28;20018;-82
2022/08/10 10:26:00;;;;;;;4.13;1.88;;;39.00;74.70;;;;;;5021837;28;20033;-81
2022/08/10 10:28:50;;;;;;;5.65;2.95;;;39.50;73.00;;;;;;5021951;28;20124;-81
2022/08/10 10:31:32;;;;;;;5.13;2.60;;;38.40;69.00;;;;;;5018364;28;20025;-82
2022/08/10 10:34:03;;;;;;;4.82;3.30;;;38.50;69.40;;;;;;5017181;28;20056;-81
2022/08/10 10:36:31;;;;;;;3.85;2.63;;;38.60;69.60;;;;;;5016481;28;20077;-81
2022/08/10 10:38:58;;;;;;;4.03;2.58;;;38.20;69.50;;;;;;5015761;28;20041;-81
2022/08/10 10:41:41;;;;;;;4.85;2.03;;;35.80;66.30;;;;;;5015311;28;20021;-81
2022/08/10 10:44:25;;;;;;;3.20;2.00;;;37.00;66.80;;;;;;5016607;28;20497;-81
2022/08/10 10:47:34;;;;;;;2.75;1.85;;;37.40;67.50;;;;;;5016840;28;20022;-81
2022/08/10 10:50:04;;;;;;;3.75;1.90;;;37.80;69.20;;;;;;5017074;28;20417;-82
2022/08/10 10:52:42;;;;;;;3.10;2.20;;;36.60;66.80;;;;;;5017084;28;20532;-82
2022/08/10 10:55:24;;;;;;;2.95;2.03;;;37.30;66.80;;;;;;5017599;28;20060;-82
2022/08/10 10:58:05;;;;;;;2.38;2.13;;;37.30;67.40;;;;;;5016797;28;20077;-81
2022/08/10 11:00:42;;;;;;;2.08;1.90;;;35.10;66.40;;;;;;5017826;28;20029;-81
2022/08/10 11:03:43;;;;;;;2.88;2.03;;;34.00;67.00;;;;;;5032448;28;20017;-81
2022/08/10 11:06:36;;;;;;;4.10;2.10;;;32.40;69.50;;;;;;4979585;28;20021;-82
2022/08/10 11:09:08;;;;;;;3.03;2.13;;;30.30;69.80;;;;;;5038085;28;20022;-81
2022/08/10 11:11:37;;;;;;;2.72;2.00;;;30.10;74.40;;;;;;5040897;28;20014;-81
2022/08/10 11:14:12;;;;;;;;;;;29.90;77.10;;;;;;5043431;28;20033;-82
2022/08/10 11:17:06;;;;;;;2.58;1.95;;;29.40;78.10;;;;;;5043107;28;19952;-81
2022/08/10 11:19:38;;;;;;;3.42;2.10;;;29.40;81.40;;;;;;5040034;28;20022;-81
2022/08/10 11:22:24;;;;;;;3.67;2.00;;;28.70;82.10;;;;;;5042997;28;20042;-81
2022/08/10 11:25:00;;;;;;;3.47;2.08;;;28.90;87.00;;;;;;5042923;28;20018;-82
2022/08/10 11:27:37;;;;;;;3.00;1.75;;;28.70;87.30;;;;;;5042901;28;20032;-82
2022/08/10 11:30:03;;;;;;;2.72;1.52;;;28.70;89.90;;;;;;5042774;28;20022;-81
2022/08/10 11:33:02;;;;;;;3.05;1.88;;;28.60;91.30;;;;;;5042617;28;20040;-82
2022/08/10 11:35:55;;;;;;;2.92;2.22;;;28.00;91.60;;;;;;5038280;28;20057;-82
2022/08/10 11:38:51;;;;;;;1.60;1.50;;;28.70;93.80;;;;;;5042583;28;20014;-81
2022/08/10 11:41:29;;;;;;;2.97;2.00;;;28.40;94.80;;;;;;5042071;28;20078;-81
2022/08/10 11:44:08;;;;;;;3.17;2.22;;;28.30;95.90;;;;;;5042556;28;20069;-81
2022/08/10 11:46:39;;;;;;;2.40;1.67;;;28.20;96.60;;;;;;5042596;28;20065;-82
2022/08/10 11:49:12;;;;;;;2.78;2.00;;;28.50;99.90;;;;;;5042411;28;20040;-82
2022/08/10 11:51:48;;;;;;;2.65;2.17;;;27.90;98.00;;;;;;5042538;28;20033;-82
2022/08/10 11:54:34;;;;;;;3.33;1.80;;;28.60;99.40;;;;;;5042416;28;20014;-81
2022/08/10 11:57:00;;;;;;;3.33;1.70;;;28.90;99.90;;;;;;5042390;28;20086;-82
2022/08/10 12:02:17;;;;;;;2.15;1.80;;;28.80;99.30;;;;;;5042371;28;20073;-82
2022/08/10 12:04:50;;;;;;;3.03;1.70;;;28.30;98.60;;;;;;5042222;28;20078;-81
2022/08/10 12:07:20;;;;;;;3.10;1.60;;;28.80;99.90;;;;;;5042199;28;20041;-81
2022/08/10 12:09:46;;;;;;;;;;;29.00;99.90;;;;;;5042452;28;20029;-81
2022/08/10 12:12:12;;;;;;;1.98;1.13;;;28.70;98.60;;;;;;5041974;28;19972;-82
2022/08/10 12:15:05;;;;;;;1.52;1.30;;;28.90;98.30;;;;;;5042041;28;20010;-82
2022/08/10 12:17:43;;;;;;;2.38;1.50;;;29.00;98.60;;;;;;5041786;28;20033;-81
2022/08/10 12:20:16;;;;;;;1.98;1.50;;;29.00;98.70;;;;;;5041823;28;20026;-81
2022/08/10 12:22:55;;;;;;;2.42;1.50;;;28.60;98.40;;;;;;5040605;28;20085;-81
2022/08/10 12:25:35;;;;;;;2.05;1.40;;;28.20;99.90;;;;;;5041784;28;20014;-82
2022/08/10 12:28:22;;;;;;;4.68;1.42;;;28.40;97.70;;;;;;5041905;28;20014;-81
2022/08/10 12:30:55;;;;;;;1.75;1.30;;;28.40;99.20;;;;;;5041598;28;20048;-82
2022/08/10 12:33:29;;;;;;;4.13;1.60;;;28.70;98.60;;;;;;5041302;28;20021;-82
2022/08/10 12:36:05;;;;;;;1.85;1.40;;;28.90;98.70;;;;;;5041715;28;20022;-81
2022/08/10 12:38:43;;;;;;;2.13;1.30;;;28.20;98.70;;;;;;5041455;28;20041;-82
2022/08/10 12:41:27;;;;;;;1.35;1.25;;;28.60;98.30;;;;;;5041444;28;20034;-81
2022/08/10 12:44:01;;;;;;;0.75;0.75;;;28.70;97.70;;;;;;5041548;28;20086;-81
2022/08/10 12:46:47;;;;;;;1.85;1.10;;;28.90;95.80;;;;;;5041503;28;20034;-81
2022/08/10 12:49:22;;;;;;;1.27;1.17;;;28.90;95.20;;;;;;5041359;28;20014;-82
2022/08/10 12:52:03;;;;;;;1.27;1.00;;;28.90;95.50;;;;;;5041365;28;20017;-82
2022/08/10 12:54:35;;;;;;;3.03;1.38;;;29.30;96.20;;;;;;5041191;28;20057;-82
2022/08/10 12:57:16;;;;;;;1.85;1.20;;;29.20;96.40;;;;;;5041205;28;20020;-82
2022/08/10 12:59:45;;;;;;;1.70;1.30;;;28.80;96.10;;;;;;5041102;28;20037;-81
2022/08/10 13:02:18;;;;;;;2.13;1.58;;;29.00;96.60;;;;;;5040904;28;20032;-81
2022/08/10 13:04:44;;;;;;;3.38;1.50;;;29.30;97.50;;;;;;5041024;28;20018;-81
2022/08/10 13:07:11;;;;;;;1.48;1.30;;;29.40;97.40;;;;;;5041088;28;20014;-81
2022/08/10 13:09:36;;;;;;;1.98;1.40;;;29.50;97.60;;;;;;5040788;28;20056;-82
2022/08/10 13:12:10;;;;;;;1.45;1.33;;;28.60;96.60;;;;;;5040960;28;20010;-81
2022/08/10 13:14:45;;;;;;;1.45;1.30;;;28.40;96.30;;;;;;5040872;28;20018;-82
2022/08/10 13:17:12;;;;;;;1.98;1.30;;;28.70;97.90;;;;;;5040851;28;20029;-82
2022/08/10 13:19:44;;;;;;;1.77;1.67;;;29.00;98.50;;;;;;5040809;28;20010;-82